Weather at Alicante International Airport

Public forecast

Using degrees Celsius for public forecast. Weather courtesy of forecast.io.

Current aviation weather report (METAR) for Alicante International Airport

Retrieved 2021/07/26 14:00 UTC (13 minutes ago):

LEAL 261400Z VRB04KT 9999 FEW030 27/17 Q1013 NOSIG

Aviation forecast (TAF) for Alicante International Airport

Retrieved 2021/07/26 12:27 UTC (2 hours ago):

TAF LEAL 261100Z 2612/2712 VRB05KT 9999 FEW015 TX29/2612Z TN21/2706Z PROB40 TEMPO 2612/2618 3000 TSRA FEW030CB PROB30 TEMPO 2612/2615 VRB15G25KT 1500 TSGR SCT030CB